Time;durP1;ratioP1;P1;durP2;ratioP2;P2;SDS_P1;SDS_P2;PMS_P1;PMS_P2;Temp;Humidity;BMP_temperature;BMP_pressure;BME280_temperature;BME280_humidity;BME280_pressure;Samples;Min_cycle;Max_cycle;Signal;HPM_P1;HPM_P2
2023/12/27 00:00:09;;;;;;;3.90;3.60;;;9.20;99.90;;;;;;5061724;28;20448;-85
2023/12/27 00:02:38;;;;;;;4.00;3.90;;;9.30;99.90;;;;;;5059877;28;20447;-85
2023/12/27 00:05:07;;;;;;;4.30;4.00;;;9.30;99.90;;;;;;5061981;28;20480;-84
2023/12/27 00:07:35;;;;;;;3.50;3.30;;;9.30;99.90;;;;;;5062576;28;20478;-84
2023/12/27 00:10:04;;;;;;;4.00;3.80;;;9.30;99.90;;;;;;5064299;28;20544;-85
2023/12/27 00:12:32;;;;;;;4.40;4.20;;;9.30;99.90;;;;;;5066820;28;20529;-85
2023/12/27 00:15:02;;;;;;;4.20;4.00;;;9.30;99.90;;;;;;5064555;28;20466;-84
2023/12/27 00:17:31;;;;;;;4.10;3.70;;;9.20;99.90;;;;;;5065418;28;20532;-86
2023/12/27 00:19:59;;;;;;;3.70;3.60;;;9.20;99.90;;;;;;5066819;28;20459;-85
2023/12/27 00:22:27;;;;;;;4.10;3.80;;;9.30;99.90;;;;;;5069286;28;20925;-85
2023/12/27 00:24:55;;;;;;;4.07;3.80;;;9.30;99.90;;;;;;5067686;28;20465;-85
2023/12/27 00:27:24;;;;;;;3.80;3.70;;;9.30;99.90;;;;;;5064511;28;20537;-85
2023/12/27 00:29:52;;;;;;;3.90;3.70;;;9.30;99.90;;;;;;5065279;28;20439;-86
2023/12/27 00:32:22;;;;;;;4.20;4.00;;;9.30;99.90;;;;;;5067928;28;20447;-85
2023/12/27 00:34:50;;;;;;;4.20;3.90;;;9.30;99.90;;;;;;5065772;28;20462;-86
2023/12/27 00:37:18;;;;;;;4.10;3.80;;;9.40;99.90;;;;;;5065934;28;20457;-86
2023/12/27 00:39:47;;;;;;;4.67;4.47;;;9.30;99.90;;;;;;5067401;28;20808;-84
2023/12/27 00:42:16;;;;;;;4.17;3.87;;;9.30;99.90;;;;;;5065665;28;20456;-85
2023/12/27 00:44:44;;;;;;;3.73;3.50;;;9.30;99.90;;;;;;5067297;28;20444;-85
2023/12/27 00:47:12;;;;;;;3.90;3.70;;;9.30;99.90;;;;;;5066426;28;20474;-85
2023/12/27 00:49:42;;;;;;;3.90;3.70;;;9.30;99.90;;;;;;5065026;28;20956;-85
2023/12/27 00:52:10;;;;;;;3.97;3.83;;;9.30;99.90;;;;;;5066696;28;20551;-85
2023/12/27 00:54:39;;;;;;;3.80;3.60;;;9.30;99.90;;;;;;5063044;28;20538;-83
2023/12/27 00:57:07;;;;;;;4.10;3.70;;;9.30;99.90;;;;;;5061398;28;20533;-84
2023/12/27 00:59:35;;;;;;;4.20;3.90;;;9.30;99.90;;;;;;5066646;28;20457;-83
2023/12/27 01:02:04;;;;;;;5.53;4.57;;;9.30;99.90;;;;;;5064825;28;20462;-83
2023/12/27 01:04:33;;;;;;;3.90;3.80;;;9.30;99.90;;;;;;5064845;28;20453;-86
2023/12/27 01:07:03;;;;;;;4.90;3.80;;;9.30;99.90;;;;;;5065840;28;20493;-85
2023/12/27 01:09:31;;;;;;;3.90;3.70;;;9.30;99.90;;;;;;5064748;28;20464;-84
2023/12/27 01:11:59;;;;;;;3.60;3.50;;;9.20;99.90;;;;;;5065445;28;20459;-85
2023/12/27 01:14:28;;;;;;;4.10;3.90;;;9.30;99.90;;;;;;5062183;28;20450;-85
2023/12/27 01:16:56;;;;;;;3.93;3.73;;;9.20;99.90;;;;;;5061875;28;20467;-84
2023/12/27 01:19:24;;;;;;;3.80;3.70;;;9.20;99.90;;;;;;5067453;28;20451;-85
2023/12/27 01:21:53;;;;;;;4.03;3.80;;;9.30;99.90;;;;;;5066915;28;20572;-83
2023/12/27 01:24:22;;;;;;;7.83;5.10;;;9.30;99.90;;;;;;5062627;28;20447;-83
2023/12/27 01:26:50;;;;;;;3.90;3.70;;;9.30;99.90;;;;;;5062317;28;20482;-83
2023/12/27 01:29:19;;;;;;;3.60;3.50;;;9.30;99.90;;;;;;5062924;28;20452;-83
2023/12/27 01:31:47;;;;;;;4.53;4.20;;;9.30;99.90;;;;;;5061855;28;20544;-85
2023/12/27 01:34:15;;;;;;;4.00;3.70;;;9.30;99.90;;;;;;5061378;28;20517;-84
2023/12/27 01:36:51;;;;;;;4.80;4.40;;;9.30;99.90;;;;;;5061656;28;20516;-85
2023/12/27 01:39:19;;;;;;;4.07;3.70;;;9.30;99.90;;;;;;5068405;28;20446;-87
2023/12/27 01:41:49;;;;;;;3.93;3.83;;;9.20;99.90;;;;;;5071425;28;20526;-85
2023/12/27 01:44:17;;;;;;;4.47;4.10;;;9.20;99.90;;;;;;5067007;28;20992;-86
2023/12/27 01:46:45;;;;;;;4.00;3.80;;;9.20;99.90;;;;;;5066902;28;20950;-85
2023/12/27 01:49:14;;;;;;;4.07;3.97;;;9.30;99.90;;;;;;5064814;28;20899;-85
2023/12/27 01:51:42;;;;;;;4.30;4.10;;;9.20;99.90;;;;;;5062364;28;20559;-85
2023/12/27 01:54:12;;;;;;;5.07;3.90;;;9.30;99.90;;;;;;5064302;28;20459;-85
2023/12/27 01:56:40;;;;;;;3.93;3.80;;;9.20;99.90;;;;;;5059535;28;20557;-85
2023/12/27 01:59:10;;;;;;;4.70;4.40;;;9.20;99.90;;;;;;5060904;28;20452;-85
2023/12/27 02:01:38;;;;;;;3.90;3.63;;;9.20;99.90;;;;;;5062836;28;20508;-85
2023/12/27 02:04:07;;;;;;;4.17;3.97;;;9.20;99.90;;;;;;5060753;28;20454;-85
2023/12/27 02:06:36;;;;;;;3.90;3.70;;;9.20;1.00;;;;;;5063707;28;20556;-85
2023/12/27 02:09:04;;;;;;;4.20;3.93;;;9.20;99.90;;;;;;5065563;28;20546;-85
2023/12/27 02:11:32;;;;;;;3.90;3.70;;;9.20;1.00;;;;;;5062334;28;20455;-86
2023/12/27 02:14:01;;;;;;;3.77;3.67;;;9.20;99.90;;;;;;5062106;28;20464;-85
2023/12/27 02:16:31;;;;;;;4.40;4.00;;;9.20;1.00;;;;;;5061709;28;21086;-84
2023/12/27 02:19:01;;;;;;;3.83;3.63;;;9.10;1.00;;;;;;5061805;28;20882;-85
2023/12/27 02:21:30;;;;;;;3.77;3.60;;;9.10;1.00;;;;;;5065052;28;20867;-86
2023/12/27 02:24:01;;;;;;;3.97;3.77;;;9.10;1.00;;;;;;5062645;28;21013;-84
2023/12/27 02:26:32;;;;;;;3.60;3.50;;;9.10;1.00;;;;;;5061223;28;20620;-84
2023/12/27 02:29:00;;;;;;;3.80;3.67;;;9.20;1.00;;;;;;5061947;28;20538;-84
2023/12/27 02:31:28;;;;;;;3.90;3.70;;;9.20;1.00;;;;;;5056878;28;20455;-84
2023/12/27 02:33:58;;;;;;;4.13;3.93;;;9.20;1.00;;;;;;5060298;28;21262;-84
2023/12/27 02:36:27;;;;;;;3.93;3.83;;;9.10;99.90;;;;;;5060314;28;20477;-83
2023/12/27 02:38:55;;;;;;;4.37;4.03;;;9.10;1.00;;;;;;5063709;28;20451;-85
2023/12/27 02:41:24;;;;;;;3.80;3.70;;;9.10;1.00;;;;;;5062705;28;20455;-84
2023/12/27 02:43:53;;;;;;;4.10;3.87;;;9.10;1.00;;;;;;5063570;28;20455;-84
2023/12/27 02:46:21;;;;;;;4.33;4.03;;;9.10;1.00;;;;;;5064218;28;20540;-84
2023/12/27 02:48:50;;;;;;;4.33;4.03;;;9.10;1.00;;;;;;5065008;28;20451;-85
2023/12/27 02:51:18;;;;;;;3.97;3.77;;;9.10;1.00;;;;;;5063862;28;20445;-84
2023/12/27 02:53:46;;;;;;;3.80;3.60;;;9.10;1.00;;;;;;5065710;28;20448;-83
2023/12/27 02:56:14;;;;;;;3.60;3.40;;;9.00;1.00;;;;;;5065432;28;20471;-84
2023/12/27 02:58:43;;;;;;;4.17;3.87;;;9.00;1.00;;;;;;5064523;28;20431;-86
2023/12/27 03:01:12;;;;;;;4.13;3.80;;;8.90;1.00;;;;;;5065353;28;20548;-84
2023/12/27 03:03:40;;;;;;;4.03;3.83;;;9.00;1.00;;;;;;5067576;28;20458;-84
2023/12/27 03:06:09;;;;;;;3.80;3.60;;;9.00;1.00;;;;;;5068594;28;20503;-86
2023/12/27 03:08:37;;;;;;;3.80;3.60;;;9.00;1.00;;;;;;5064310;28;20479;-86
2023/12/27 03:11:06;;;;;;;3.93;3.83;;;9.00;1.00;;;;;;5067982;28;20439;-86
2023/12/27 03:13:35;;;;;;;3.83;3.70;;;9.00;1.00;;;;;;5056974;28;21601;-84
2023/12/27 03:16:06;;;;;;;4.53;4.20;;;9.00;1.00;;;;;;5055084;28;20550;-83
2023/12/27 03:18:36;;;;;;;3.93;3.80;;;9.00;1.00;;;;;;5059657;28;20447;-83
2023/12/27 03:21:04;;;;;;;3.93;3.73;;;9.00;1.00;;;;;;5059691;28;20443;-83
2023/12/27 03:23:33;;;;;;;3.80;3.60;;;9.00;1.00;;;;;;5058533;28;20466;-84
2023/12/27 03:26:01;;;;;;;3.50;3.40;;;9.10;1.00;;;;;;5060846;28;21173;-84
2023/12/27 03:28:29;;;;;;;3.60;3.50;;;9.00;1.00;;;;;;5062909;28;20578;-84
2023/12/27 03:30:58;;;;;;;3.60;3.50;;;9.00;1.00;;;;;;5062813;28;20448;-83
2023/12/27 03:33:26;;;;;;;3.80;3.60;;;9.00;1.00;;;;;;5065970;28;20451;-82
2023/12/27 03:35:56;;;;;;;3.83;3.73;;;9.10;1.00;;;;;;5061985;28;20467;-83
2023/12/27 03:38:25;;;;;;;4.00;3.70;;;9.10;1.00;;;;;;5057417;28;20493;-84
2023/12/27 03:40:53;;;;;;;4.23;3.93;;;9.00;1.00;;;;;;5062374;28;20459;-83
2023/12/27 03:43:21;;;;;;;3.97;3.83;;;9.10;1.00;;;;;;5058135;28;20585;-84
2023/12/27 03:45:50;;;;;;;4.37;4.13;;;9.10;1.00;;;;;;5063006;28;20479;-84
2023/12/27 03:48:18;;;;;;;3.77;3.67;;;9.10;1.00;;;;;;5062440;28;20907;-82
2023/12/27 03:50:47;;;;;;;3.63;3.53;;;9.10;1.00;;;;;;5059404;28;20547;-83
2023/12/27 03:53:17;;;;;;;3.60;3.50;;;9.10;1.00;;;;;;5062260;28;20465;-83
2023/12/27 03:55:45;;;;;;;4.33;4.23;;;9.10;1.00;;;;;;5058836;28;20517;-83
2023/12/27 03:58:13;;;;;;;3.67;3.47;;;9.10;1.00;;;;;;5062318;28;20539;-83
2023/12/27 04:00:42;;;;;;;3.60;3.50;;;9.10;1.00;;;;;;5059753;28;20450;-83
2023/12/27 04:03:10;;;;;;;3.70;3.60;;;9.10;1.00;;;;;;5065047;28;20542;-85
2023/12/27 04:05:38;;;;;;;3.73;3.63;;;9.10;1.00;;;;;;5061493;28;20824;-85
2023/12/27 04:08:07;;;;;;;3.60;3.50;;;9.10;1.00;;;;;;5063305;28;20908;-85
2023/12/27 04:10:36;;;;;;;3.90;3.70;;;9.10;1.00;;;;;;5062397;28;20810;-85
2023/12/27 04:13:05;;;;;;;4.07;3.97;;;9.00;1.00;;;;;;5064079;28;20455;-85
2023/12/27 04:15:33;;;;;;;3.90;3.80;;;9.10;1.00;;;;;;5064088;28;20455;-85
2023/12/27 04:18:01;;;;;;;3.60;3.50;;;9.10;1.00;;;;;;5060351;28;20442;-86
2023/12/27 04:20:30;;;;;;;3.77;3.40;;;9.10;1.00;;;;;;5061359;28;20439;-84
2023/12/27 04:22:58;;;;;;;3.80;3.70;;;9.10;1.00;;;;;;5063752;28;20547;-84
2023/12/27 04:25:26;;;;;;;3.83;3.73;;;9.10;1.00;;;;;;5063426;28;20455;-84
2023/12/27 04:27:56;;;;;;;3.90;3.80;;;9.10;1.00;;;;;;5065221;28;20501;-84
2023/12/27 04:30:25;;;;;;;3.63;3.53;;;9.10;1.00;;;;;;5064243;28;20567;-86
2023/12/27 04:32:53;;;;;;;3.90;3.80;;;9.10;1.00;;;;;;5062311;28;20518;-84
2023/12/27 04:35:22;;;;;;;3.63;3.53;;;9.20;1.00;;;;;;5064526;28;20562;-85
2023/12/27 04:37:50;;;;;;;3.77;3.67;;;9.10;1.00;;;;;;5060422;28;20546;-84
2023/12/27 04:40:19;;;;;;;3.93;3.70;;;9.10;1.00;;;;;;5063227;28;20512;-85
2023/12/27 04:42:47;;;;;;;3.70;3.50;;;9.10;1.00;;;;;;5065407;28;20439;-83
2023/12/27 04:45:17;;;;;;;3.70;3.60;;;9.00;1.00;;;;;;5067528;28;20512;-85
2023/12/27 04:47:45;;;;;;;3.90;3.70;;;8.90;1.00;;;;;;5064214;28;20527;-85
2023/12/27 04:50:14;;;;;;;3.80;3.60;;;8.90;1.00;;;;;;5062488;28;20546;-85
2023/12/27 04:52:42;;;;;;;3.70;3.60;;;8.90;1.00;;;;;;5066003;28;20444;-84
2023/12/27 04:55:10;;;;;;;3.40;3.30;;;8.80;1.00;;;;;;5065060;28;20534;-84
2023/12/27 04:57:38;;;;;;;4.00;3.70;;;8.80;1.00;;;;;;5057656;28;20475;-82
2023/12/27 05:00:08;;;;;;;4.10;3.80;;;8.70;1.00;;;;;;5061731;28;20954;-82
2023/12/27 05:02:38;;;;;;;3.83;3.53;;;8.70;1.00;;;;;;5059410;28;21143;-82
2023/12/27 05:05:07;;;;;;;3.60;3.50;;;8.70;1.00;;;;;;5063740;28;20455;-82
2023/12/27 05:07:35;;;;;;;3.70;3.53;;;8.70;1.00;;;;;;5060685;28;20841;-82
2023/12/27 05:10:04;;;;;;;3.80;3.70;;;8.70;1.00;;;;;;5063007;28;20451;-81
2023/12/27 05:12:32;;;;;;;4.23;4.03;;;8.70;1.00;;;;;;5061527;28;20982;-82
2023/12/27 05:15:00;;;;;;;4.33;4.03;;;8.60;1.00;;;;;;5063624;28;21315;-82
2023/12/27 05:17:29;;;;;;;4.40;4.20;;;8.60;1.00;;;;;;5062871;28;20491;-82
2023/12/27 05:19:58;;;;;;;4.40;4.30;;;8.60;1.00;;;;;;5062437;28;20444;-81
2023/12/27 05:22:27;;;;;;;4.13;4.03;;;8.60;1.00;;;;;;5063118;28;21389;-83
2023/12/27 05:24:56;;;;;;;3.80;3.57;;;8.60;1.00;;;;;;5070573;28;20451;-85
2023/12/27 05:27:24;;;;;;;4.27;4.00;;;8.60;1.00;;;;;;5067159;28;20482;-84
2023/12/27 05:29:52;;;;;;;4.27;4.17;;;8.60;1.00;;;;;;5070010;28;20975;-85
2023/12/27 05:32:20;;;;;;;4.30;4.13;;;8.60;1.00;;;;;;5065719;28;20448;-84
2023/12/27 05:34:49;;;;;;;4.50;4.20;;;8.50;1.00;;;;;;5062788;28;20544;-84
2023/12/27 05:37:18;;;;;;;4.57;4.20;;;8.60;1.00;;;;;;5063464;28;21997;-86
2023/12/27 05:39:46;;;;;;;4.30;4.17;;;8.60;1.00;;;;;;5071793;28;20489;-84
2023/12/27 05:42:15;;;;;;;4.30;4.10;;;8.60;1.00;;;;;;5070636;28;20526;-85
2023/12/27 05:44:43;;;;;;;4.23;3.83;;;8.50;1.00;;;;;;5067970;28;20461;-85
2023/12/27 05:47:11;;;;;;;5.30;3.90;;;8.50;1.00;;;;;;5066823;28;20471;-85
2023/12/27 05:49:39;;;;;;;4.53;4.13;;;8.50;1.00;;;;;;5065474;28;20806;-85
2023/12/27 05:52:08;;;;;;;4.13;4.03;;;8.50;99.90;;;;;;5068707;28;20455;-85
2023/12/27 05:54:38;;;;;;;4.20;3.90;;;8.30;99.90;;;;;;5067303;28;20544;-85
2023/12/27 05:57:06;;;;;;;4.07;3.83;;;8.30;1.00;;;;;;5065328;28;20460;-85
2023/12/27 05:59:35;;;;;;;3.77;3.53;;;8.30;1.00;;;;;;5064949;28;20508;-85
2023/12/27 06:02:03;;;;;;;4.30;4.00;;;8.20;99.90;;;;;;5064626;28;20443;-85
2023/12/27 06:04:32;;;;;;;4.00;3.77;;;8.20;1.00;;;;;;5066188;28;20457;-83
2023/12/27 06:07:01;;;;;;;4.07;3.60;;;8.20;1.00;;;;;;5058356;28;20468;-84
2023/12/27 06:09:31;;;;;;;4.40;4.00;;;8.30;1.00;;;;;;5060830;28;20481;-84
2023/12/27 06:12:01;;;;;;;4.97;4.07;;;8.20;1.00;;;;;;5063109;28;21234;-84
2023/12/27 06:14:30;;;;;;;4.17;3.97;;;8.30;1.00;;;;;;5063659;28;21013;-84
2023/12/27 06:16:58;;;;;;;3.70;3.50;;;8.30;1.00;;;;;;5062106;28;20523;-84
2023/12/27 06:19:26;;;;;;;4.20;3.83;;;8.30;1.00;;;;;;5064178;28;20451;-84
2023/12/27 06:21:55;;;;;;;3.97;3.60;;;8.20;1.00;;;;;;5064706;28;20460;-84
2023/12/27 06:24:23;;;;;;;3.80;3.70;;;8.20;1.00;;;;;;5061718;28;20455;-84
2023/12/27 06:26:52;;;;;;;4.43;4.13;;;8.20;1.00;;;;;;5062402;28;20820;-83
2023/12/27 06:29:21;;;;;;;4.33;4.00;;;8.20;1.00;;;;;;5061793;28;20477;-83
2023/12/27 06:31:49;;;;;;;3.83;3.50;;;8.20;1.00;;;;;;5062943;28;20546;-82
2023/12/27 06:34:18;;;;;;;3.60;3.40;;;8.20;1.00;;;;;;5055050;28;20570;-84
2023/12/27 06:36:47;;;;;;;3.90;3.70;;;8.20;99.50;;;;;;5060850;28;20467;-84
2023/12/27 06:39:16;;;;;;;5.60;4.00;;;8.10;1.00;;;;;;5060644;28;20479;-84
2023/12/27 06:41:44;;;;;;;3.77;3.60;;;8.10;1.00;;;;;;5058271;28;20544;-83
2023/12/27 06:44:13;;;;;;;4.27;3.97;;;8.10;1.00;;;;;;5065197;28;20444;-83
2023/12/27 06:46:42;;;;;;;3.90;3.60;;;8.10;1.00;;;;;;5064450;28;20481;-82
2023/12/27 06:49:10;;;;;;;4.07;3.87;;;8.10;18.50;;;;;;5067026;28;20463;-81
2023/12/27 06:51:39;;;;;;;3.97;3.67;;;8.10;1.00;;;;;;5060242;28;20452;-83
2023/12/27 06:54:07;;;;;;;4.17;4.07;;;8.00;1.00;;;;;;5060547;28;21156;-84
2023/12/27 06:56:38;;;;;;;4.10;3.90;;;8.00;21.30;;;;;;5060252;28;20558;-84
2023/12/27 06:59:07;;;;;;;6.00;3.97;;;8.00;1.00;;;;;;5062480;28;20447;-83
2023/12/27 07:01:35;;;;;;;4.33;3.47;;;7.90;1.00;;;;;;5063542;28;20507;-84
2023/12/27 07:04:05;;;;;;;4.80;4.40;;;7.90;1.00;;;;;;5053892;28;20538;-84
2023/12/27 07:06:33;;;;;;;3.67;3.47;;;7.90;1.00;;;;;;5058528;28;20988;-83
2023/12/27 07:09:03;;;;;;;4.20;3.97;;;8.00;8.10;;;;;;5061019;28;20502;-83
2023/12/27 07:11:31;;;;;;;3.60;3.37;;;8.10;99.90;;;;;;5062776;28;20454;-81
2023/12/27 07:13:59;;;;;;;3.90;3.70;;;8.20;37.40;;;;;;5065083;28;20558;-82
2023/12/27 07:16:27;;;;;;;4.60;4.30;;;8.10;1.00;;;;;;5057159;28;20537;-80
2023/12/27 07:18:56;;;;;;;4.40;4.20;;;8.00;95.50;;;;;;5057931;28;20459;-82
2023/12/27 07:21:26;;;;;;;6.13;5.70;;;8.10;31.90;;;;;;5060738;28;20448;-85
2023/12/27 07:23:55;;;;;;;4.70;4.50;;;8.00;1.00;;;;;;5064905;28;20447;-83
2023/12/27 07:26:23;;;;;;;4.87;4.50;;;7.90;25.70;;;;;;5066431;28;20516;-82
2023/12/27 07:28:52;;;;;;;4.70;4.30;;;7.90;99.90;;;;;;5058516;28;20462;-82
2023/12/27 07:31:20;;;;;;;5.10;4.80;;;7.90;83.90;;;;;;5059045;28;20475;-82
2023/12/27 07:33:49;;;;;;;5.00;4.70;;;7.80;89.10;;;;;;5063417;28;20466;-82
2023/12/27 07:36:18;;;;;;;4.60;4.30;;;7.80;99.90;;;;;;5058736;28;20510;-83
2023/12/27 07:38:51;;;;;;;5.23;4.77;;;7.90;99.90;;;;;;5061208;28;20534;-88
2023/12/27 07:41:19;;;;;;;4.70;4.30;;;7.90;99.90;;;;;;5064273;28;20512;-83
2023/12/27 07:43:48;;;;;;;4.50;4.20;;;7.90;99.90;;;;;;5060346;28;21017;-84
2023/12/27 07:46:17;;;;;;;4.47;4.17;;;7.90;99.90;;;;;;5049058;28;20550;-82
2023/12/27 07:48:45;;;;;;;3.87;3.73;;;7.90;99.90;;;;;;5059222;28;20542;-83
2023/12/27 07:51:13;;;;;;;4.77;3.63;;;7.90;99.90;;;;;;5059246;28;20459;-82
2023/12/27 07:53:42;;;;;;;4.47;4.07;;;7.90;99.90;;;;;;5060157;28;20450;-82
2023/12/27 07:56:12;;;;;;;5.70;5.40;;;8.00;99.90;;;;;;5059111;28;21038;-82
2023/12/27 07:58:40;;;;;;;9.30;8.80;;;7.90;99.90;;;;;;5055419;28;20459;-81
2023/12/27 08:01:08;;;;;;;6.83;6.40;;;8.00;99.90;;;;;;5049172;28;20571;-81
2023/12/27 08:03:39;;;;;;;7.27;6.70;;;8.00;99.90;;;;;;5054309;28;20521;-81
2023/12/27 08:06:08;;;;;;;8.53;7.37;;;8.00;62.60;;;;;;5056175;28;20470;-82
2023/12/27 08:08:36;;;;;;;5.00;4.60;;;8.00;51.80;;;;;;5049594;28;20508;-85
2023/12/27 08:11:05;;;;;;;4.77;4.40;;;8.10;14.00;;;;;;5058021;28;20881;-82
2023/12/27 08:13:36;;;;;;;4.90;4.60;;;8.10;1.00;;;;;;5057811;28;20470;-80
2023/12/27 08:16:06;;;;;;;5.70;4.90;;;8.10;62.30;;;;;;5053988;28;21342;-83
2023/12/27 08:18:35;;;;;;;4.80;4.50;;;8.10;1.00;;;;;;5059826;28;20463;-80
2023/12/27 08:21:05;;;;;;;4.87;4.67;;;8.10;1.00;;;;;;5055770;28;20465;-80
2023/12/27 08:23:35;;;;;;;5.00;4.60;;;8.10;1.00;;;;;;5056705;28;20458;-81
2023/12/27 08:26:06;;;;;;;4.47;4.27;;;8.10;1.00;;;;;;5061228;28;20562;-81
2023/12/27 08:28:36;;;;;;;6.83;4.63;;;8.20;1.00;;;;;;5064361;28;20464;-80
2023/12/27 08:31:05;;;;;;;4.33;4.13;;;8.20;1.00;;;;;;5062128;28;20478;-83
2023/12/27 08:33:35;;;;;;;4.57;4.27;;;8.20;1.00;;;;;;5060869;28;20981;-80
2023/12/27 08:36:04;;;;;;;5.17;4.83;;;8.20;1.00;;;;;;5060392;28;21098;-78
2023/12/27 08:38:33;;;;;;;6.40;5.87;;;8.10;1.00;;;;;;5062497;28;20459;-81
2023/12/27 08:41:02;;;;;;;6.13;5.60;;;8.20;1.00;;;;;;5060718;28;20447;-80
2023/12/27 08:43:33;;;;;;;5.70;5.30;;;8.20;1.00;;;;;;5061397;28;20470;-79
2023/12/27 08:46:02;;;;;;;4.97;4.67;;;8.20;1.00;;;;;;5061781;28;20524;-78
2023/12/27 08:48:30;;;;;;;6.80;6.13;;;8.20;1.00;;;;;;5054817;28;20459;-80
2023/12/27 08:50:59;;;;;;;4.90;4.60;;;8.30;1.00;;;;;;5064451;28;20466;-81
2023/12/27 08:53:27;;;;;;;4.90;4.60;;;8.30;99.90;;;;;;5059534;28;20562;-79
2023/12/27 08:55:56;;;;;;;6.90;4.67;;;8.30;99.90;;;;;;5061539;28;20550;-79
2023/12/27 08:58:25;;;;;;;4.97;4.77;;;8.40;99.90;;;;;;5056242;28;20494;-79
2023/12/27 09:00:54;;;;;;;4.80;4.50;;;8.40;99.90;;;;;;5065789;28;20470;-80
2023/12/27 09:03:24;;;;;;;4.47;3.90;;;8.50;1.00;;;;;;5068060;28;20461;-81
2023/12/27 09:05:53;;;;;;;4.37;4.07;;;8.40;1.00;;;;;;5066121;28;21431;-80
2023/12/27 09:08:21;;;;;;;6.33;4.50;;;8.50;1.00;;;;;;5068747;28;20451;-80
2023/12/27 09:10:49;;;;;;;5.53;5.03;;;8.60;1.00;;;;;;5066174;28;20555;-82
2023/12/27 09:13:18;;;;;;;5.30;4.90;;;8.70;1.00;;;;;;5066641;28;20454;-82
2023/12/27 09:15:46;;;;;;;4.20;3.90;;;8.80;1.00;;;;;;5064531;28;20455;-82
2023/12/27 09:18:14;;;;;;;4.40;4.00;;;8.90;1.00;;;;;;5062691;28;20451;-81
2023/12/27 09:20:44;;;;;;;3.80;3.40;;;8.90;1.00;;;;;;5069848;28;20886;-81
2023/12/27 09:23:13;;;;;;;4.97;4.63;;;8.70;1.00;;;;;;5066083;28;20443;-80
2023/12/27 09:25:41;;;;;;;4.70;4.30;;;8.80;1.00;;;;;;5065090;28;20447;-80
2023/12/27 09:28:10;;;;;;;3.73;3.63;;;8.80;1.00;;;;;;5064911;28;20512;-80
2023/12/27 09:30:40;;;;;;;3.70;2.97;;;8.90;1.00;;;;;;5066656;28;20487;-82
2023/12/27 09:33:09;;;;;;;3.70;3.50;;;9.00;1.00;;;;;;5064471;28;20459;-81
2023/12/27 09:35:40;;;;;;;3.67;3.47;;;9.00;99.90;;;;;;5066220;28;20459;-80
2023/12/27 09:38:10;;;;;;;4.30;4.10;;;9.10;99.90;;;;;;5060639;28;20463;-81
2023/12/27 09:40:38;;;;;;;4.00;3.80;;;9.30;99.90;;;;;;5062983;28;20500;-83
2023/12/27 09:43:09;;;;;;;3.50;3.30;;;9.40;99.90;;;;;;5067085;28;20822;-83
2023/12/27 09:45:39;;;;;;;4.53;3.43;;;9.60;99.90;;;;;;5061571;28;20554;-82
2023/12/27 09:48:10;;;;;;;3.63;2.70;;;9.70;99.90;;;;;;5060690;28;23639;-80
2023/12/27 09:50:40;;;;;;;3.57;3.37;;;9.70;99.90;;;;;;5065917;28;20469;-82
2023/12/27 09:53:11;;;;;;;6.40;2.80;;;9.80;99.90;;;;;;5064030;28;20450;-80
2023/12/27 09:55:40;;;;;;;2.87;2.67;;;10.00;99.90;;;;;;5061311;28;20486;-80
2023/12/27 09:58:10;;;;;;;3.43;3.13;;;10.20;99.90;;;;;;5060275;28;20460;-81
2023/12/27 10:00:43;;;;;;;2.57;2.37;;;10.30;99.90;;;;;;5057408;28;20527;-80
2023/12/27 10:03:15;;;;;;;2.30;2.10;;;10.60;99.90;;;;;;5061409;28;20462;-80
2023/12/27 10:05:49;;;;;;;2.87;2.67;;;11.00;99.90;;;;;;5058937;28;20451;-81
2023/12/27 10:08:20;;;;;;;3.00;2.70;;;11.30;99.90;;;;;;5054369;28;20454;-80
2023/12/27 10:10:49;;;;;;;2.80;2.60;;;11.60;99.90;;;;;;5059337;28;20996;-80
2023/12/27 10:13:18;;;;;;;2.60;2.50;;;12.00;99.90;;;;;;5058860;28;20459;-81
2023/12/27 10:15:46;;;;;;;3.10;2.90;;;12.40;99.90;;;;;;5061780;28;20448;-80
2023/12/27 10:18:14;;;;;;;2.67;2.47;;;12.40;99.90;;;;;;5060019;28;20516;-80
2023/12/27 10:20:46;;;;;;;2.73;2.40;;;12.20;99.90;;;;;;5057602;28;20478;-80
2023/12/27 10:23:14;;;;;;;2.60;2.40;;;11.90;99.90;;;;;;5058623;28;20447;-80
2023/12/27 10:25:45;;;;;;;2.40;2.30;;;11.50;99.90;;;;;;5063828;28;21153;-80
2023/12/27 10:28:13;;;;;;;3.73;3.23;;;11.60;99.90;;;;;;5059044;28;20496;-80
2023/12/27 10:30:42;;;;;;;2.77;2.57;;;13.00;99.90;;;;;;5049873;28;20478;-80
2023/12/27 10:33:10;;;;;;;2.60;2.40;;;14.20;99.90;;;;;;5058698;28;20457;-82
2023/12/27 10:35:44;;;;;;;2.20;2.10;;;15.10;99.90;;;;;;5062658;28;20584;-82
2023/12/27 10:38:12;;;;;;;3.63;2.60;;;15.40;99.90;;;;;;5059655;28;20478;-81
2023/12/27 10:40:41;;;;;;;2.50;2.40;;;16.60;99.90;;;;;;5058735;28;20455;-81
2023/12/27 10:43:10;;;;;;;2.55;2.35;;;17.10;99.90;;;;;;5062689;28;20489;-80
2023/12/27 10:45:41;;;;;;;3.03;2.83;;;17.70;99.90;;;;;;5059268;28;20216;-79
2023/12/27 10:48:12;;;;;;;3.50;2.60;;;18.00;99.90;;;;;;5062516;28;20447;-80
2023/12/27 10:50:41;;;;;;;2.20;2.00;;;18.30;99.90;;;;;;5058385;28;20455;-81
2023/12/27 10:53:12;;;;;;;2.83;2.50;;;17.70;99.90;;;;;;5058901;28;20486;-81
2023/12/27 10:55:44;;;;;;;2.70;2.50;;;16.50;99.90;;;;;;5058500;28;20572;-81
2023/12/27 10:58:21;;;;;;;2.30;2.20;;;15.40;99.90;;;;;;5061137;28;20702;-81
2023/12/27 11:00:49;;;;;;;2.63;2.20;;;14.80;99.90;;;;;;5060007;28;20453;-82
2023/12/27 11:03:19;;;;;;;2.27;2.10;;;14.50;99.90;;;;;;5059289;28;20463;-82
2023/12/27 11:05:49;;;;;;;2.60;2.40;;;14.10;99.90;;;;;;5058989;28;20513;-81
2023/12/27 11:08:20;;;;;;;2.50;2.30;;;14.20;95.80;;;;;;5061849;28;20466;-83
2023/12/27 11:10:50;;;;;;;2.70;2.50;;;14.20;97.20;;;;;;5055396;28;20984;-83
2023/12/27 11:13:24;;;;;;;2.30;2.10;;;14.20;98.10;;;;;;5058684;28;20451;-82
2023/12/27 11:15:53;;;;;;;2.80;2.20;;;14.30;97.60;;;;;;5061752;28;20517;-83
2023/12/27 11:18:23;;;;;;;2.50;2.30;;;14.50;99.90;;;;;;5062429;28;20458;-83
2023/12/27 11:20:55;;;;;;;2.23;2.13;;;14.50;99.90;;;;;;5061695;28;20498;-82
2023/12/27 11:23:24;;;;;;;3.50;2.20;;;14.60;99.90;;;;;;5059889;28;20454;-83
2023/12/27 11:25:55;;;;;;;2.07;1.97;;;14.40;97.40;;;;;;5061278;28;20456;-83
2023/12/27 11:28:25;;;;;;;2.37;2.03;;;14.40;97.40;;;;;;5061928;28;21081;-81
2023/12/27 11:30:54;;;;;;;6.40;2.30;;;14.10;99.90;;;;;;5062100;28;20663;-81
2023/12/27 11:33:23;;;;;;;2.07;1.90;;;13.80;93.70;;;;;;5059345;28;20463;-82
2023/12/27 11:35:58;;;;;;;2.23;1.80;;;13.60;90.50;;;;;;5061148;28;20451;-82
2023/12/27 11:38:27;;;;;;;1.93;1.83;;;13.50;89.10;;;;;;5059000;28;20447;-82
2023/12/27 11:40:58;;;;;;;1.90;1.80;;;13.50;90.40;;;;;;5062637;28;20541;-81
2023/12/27 11:43:48;;;;;;;2.20;1.60;;;13.40;86.90;;;;;;5059852;28;20614;-81
2023/12/27 11:46:16;;;;;;;1.70;1.70;;;13.40;96.50;;;;;;5059843;28;20478;-81
2023/12/27 11:48:46;;;;;;;2.30;2.20;;;13.30;87.90;;;;;;5061514;28;20483;-82
2023/12/27 11:51:32;;;;;;;2.50;2.40;;;13.20;82.70;;;;;;5054284;28;20462;-82
2023/12/27 11:54:01;;;;;;;2.30;2.13;;;13.10;82.00;;;;;;5061814;28;20443;-81
2023/12/27 11:56:31;;;;;;;2.67;2.57;;;13.00;87.60;;;;;;5056198;28;20475;-82
2023/12/27 11:59:06;;;;;;;2.37;2.17;;;13.00;81.60;;;;;;5060750;28;20505;-82
2023/12/27 12:01:36;;;;;;;2.00;1.80;;;13.10;82.90;;;;;;5060858;28;20448;-81
2023/12/27 12:04:36;;;;;;;2.00;1.90;;;13.10;84.70;;;;;;5061047;28;20450;-81
2023/12/27 12:07:34;;;;;;;2.00;1.90;;;13.10;79.50;;;;;;5059672;28;21060;-82
2023/12/27 12:10:03;;;;;;;1.90;1.80;;;13.00;75.50;;;;;;5062818;28;20551;-82
2023/12/27 12:12:32;;;;;;;2.07;1.97;;;13.00;76.20;;;;;;5060885;28;20486;-82
2023/12/27 12:15:02;;;;;;;1.87;1.77;;;12.90;74.40;;;;;;5059777;28;20463;-81
2023/12/27 12:17:31;;;;;;;1.80;1.70;;;12.90;75.10;;;;;;5059367;28;20446;-82
2023/12/27 12:20:00;;;;;;;2.10;1.90;;;12.80;77.10;;;;;;5062780;28;20291;-82
2023/12/27 12:22:30;;;;;;;1.80;1.70;;;12.70;76.40;;;;;;5064103;28;20448;-81
2023/12/27 12:25:07;;;;;;;1.90;1.80;;;12.80;73.90;;;;;;5061943;28;21291;-82
2023/12/27 12:27:38;;;;;;;2.23;2.13;;;12.80;74.70;;;;;;5059496;28;20474;-82
2023/12/27 12:30:09;;;;;;;1.80;1.70;;;12.70;72.80;;;;;;5058196;28;21256;-81
2023/12/27 12:32:40;;;;;;;2.10;2.00;;;12.70;73.60;;;;;;5061218;28;20907;-83
2023/12/27 12:35:09;;;;;;;2.70;2.47;;;12.60;74.50;;;;;;5063282;28;20871;-82
2023/12/27 12:37:38;;;;;;;2.63;2.43;;;12.60;76.10;;;;;;5058625;28;20499;-82
2023/12/27 12:40:09;;;;;;;2.10;2.00;;;12.70;75.60;;;;;;5062025;28;20537;-82
2023/12/27 12:42:37;;;;;;;2.10;2.00;;;12.60;75.00;;;;;;5059229;28;20530;-82
2023/12/27 12:45:09;;;;;;;2.00;1.90;;;12.60;72.60;;;;;;5062040;28;20504;-82
2023/12/27 12:47:37;;;;;;;1.90;1.80;;;12.60;71.10;;;;;;5060232;28;20470;-82
2023/12/27 12:50:07;;;;;;;2.10;2.00;;;12.60;75.10;;;;;;5057839;28;20466;-82
2023/12/27 12:52:36;;;;;;;1.80;1.70;;;12.60;71.20;;;;;;5057194;28;20484;-82
2023/12/27 12:55:08;;;;;;;2.57;2.37;;;12.60;71.70;;;;;;5058432;28;20458;-81
2023/12/27 12:57:36;;;;;;;3.53;2.07;;;12.60;72.70;;;;;;5060369;28;20471;-82
2023/12/27 13:00:06;;;;;;;2.10;2.00;;;12.70;74.30;;;;;;5059284;28;20447;-81
2023/12/27 13:02:36;;;;;;;2.63;2.43;;;12.60;72.60;;;;;;5057994;28;20472;-82
2023/12/27 13:05:06;;;;;;;2.97;2.77;;;12.60;92.00;;;;;;5056230;28;20454;-81
2023/12/27 13:07:34;;;;;;;1.97;1.87;;;12.60;72.10;;;;;;5056328;28;20482;-82
2023/12/27 13:10:04;;;;;;;2.43;2.23;;;12.60;71.70;;;;;;5061551;28;20447;-82